Time;durP1;ratioP1;P1;durP2;ratioP2;P2;SDS_P1;SDS_P2;PMS_P1;PMS_P2;Temp;Humidity;BMP_temperature;BMP_pressure;BME280_temperature;BME280_humidity;BME280_pressure;Samples;Min_cycle;Max_cycle;Signal;HPM_P1;HPM_P2
2021/11/26 00:00:58;;;;;;;1.50;1.40;;;;;;;1.43;67.57;99608.31;6141374;29;20495;-73
2021/11/26 00:04:05;;;;;;;1.20;1.20;;;;;;;1.40;67.95;99593.41;6142444;29;20276;-73
2021/11/26 00:07:12;;;;;;;2.47;1.40;;;;;;;1.54;66.96;99595.19;6141334;29;20247;-73
2021/11/26 00:10:19;;;;;;;1.80;1.70;;;;;;;1.66;66.42;99595.56;6141365;29;20479;-73
2021/11/26 00:13:30;;;;;;;3.13;1.47;;;;;;;1.71;67.24;99585.91;6142597;29;20219;-73
2021/11/26 00:16:37;;;;;;;4.13;1.30;;;;;;;1.70;65.89;99583.38;6141250;29;20196;-73
2021/11/26 00:19:42;;;;;;;2.90;1.47;;;;;;;1.67;66.74;99594.53;6142273;29;20188;-73
2021/11/26 00:22:47;;;;;;;3.07;1.53;;;;;;;1.78;65.73;99591.34;6142315;29;20198;-72
2021/11/26 00:25:51;;;;;;;2.40;1.30;;;;;;;1.83;66.18;99591.59;6141405;29;20385;-73
2021/11/26 00:28:56;;;;;;;2.50;1.20;;;;;;;1.71;66.53;99609.25;6141546;29;20361;-73
2021/11/26 00:32:00;;;;;;;2.50;1.30;;;;;;;1.74;65.75;99595.44;6142963;29;20275;-74
2021/11/26 00:35:06;;;;;;;1.83;1.40;;;;;;;1.81;65.90;99596.34;6141792;29;20534;-73
2021/11/26 00:38:12;;;;;;;2.07;1.20;;;;;;;1.79;65.45;99593.84;6142763;29;20189;-73
2021/11/26 00:41:17;;;;;;;1.93;1.73;;;;;;;1.80;65.49;99606.25;6142131;29;20191;-73
2021/11/26 00:44:22;;;;;;;4.10;1.37;;;;;;;1.66;65.93;99609.00;6141882;29;20507;-73
2021/11/26 00:47:26;;;;;;;2.20;2.10;;;;;;;1.68;65.78;99602.41;6142743;29;20209;-74
2021/11/26 00:50:31;;;;;;;5.80;1.70;;;;;;;1.61;66.12;99608.75;6142601;29;20193;-73
2021/11/26 00:53:37;;;;;;;1.80;1.40;;;;;;;1.69;65.78;99608.63;6142123;29;20216;-73
2021/11/26 00:56:41;;;;;;;3.97;1.73;;;;;;;1.79;65.40;99603.78;6141863;29;20240;-73
2021/11/26 00:59:46;;;;;;;4.83;1.63;;;;;;;1.72;65.30;99605.56;6140978;29;20191;-73
2021/11/26 01:02:50;;;;;;;1.20;1.20;;;;;;;1.76;65.42;99605.00;6141668;29;20210;-73
2021/11/26 01:05:55;;;;;;;1.67;1.60;;;;;;;1.54;65.26;99615.91;6141022;29;20575;-73
2021/11/26 01:09:01;;;;;;;2.67;1.10;;;;;;;1.37;65.79;99625.16;6140358;29;20188;-75
2021/11/26 01:12:06;;;;;;;5.73;1.60;;;;;;;1.60;64.98;99615.13;6140283;29;20506;-74
2021/11/26 01:15:12;;;;;;;1.90;1.50;;;;;;;1.55;64.59;99610.31;6141147;29;20307;-72
2021/11/26 01:18:17;;;;;;;1.97;1.87;;;;;;;1.56;64.21;99608.47;6140217;29;20374;-73
2021/11/26 01:21:21;;;;;;;1.57;1.50;;;;;;;1.63;64.00;99612.06;6140280;29;20359;-72
2021/11/26 01:24:27;;;;;;;3.60;1.30;;;;;;;1.64;64.03;99611.06;6141399;29;20200;-72
2021/11/26 01:27:31;;;;;;;2.30;1.70;;;;;;;1.65;63.93;99607.31;6141237;29;20191;-72
2021/11/26 01:30:39;;;;;;;1.63;1.63;;;;;;;1.55;63.52;99618.38;6141207;29;20196;-72
2021/11/26 01:33:43;;;;;;;2.53;1.40;;;;;;;1.65;63.61;99623.44;6140950;29;20396;-72
2021/11/26 01:36:49;;;;;;;1.83;1.73;;;;;;;1.52;64.21;99617.91;6141353;29;20190;-73
2021/11/26 01:39:55;;;;;;;1.40;1.30;;;;;;;1.76;63.89;99620.28;6141006;29;20189;-72
2021/11/26 01:43:00;;;;;;;1.63;1.40;;;;;;;1.67;63.30;99621.44;6141446;29;20232;-72
2021/11/26 01:46:08;;;;;;;4.07;1.30;;;;;;;1.64;63.09;99605.66;6140438;29;20421;-72
2021/11/26 01:49:14;;;;;;;2.33;1.50;;;;;;;1.79;63.14;99598.38;6141311;29;20223;-72
2021/11/26 01:52:18;;;;;;;4.50;1.53;;;;;;;1.54;64.19;99605.16;6142733;29;20195;-72
2021/11/26 01:55:24;;;;;;;1.53;1.43;;;;;;;1.57;64.09;99599.38;6145807;29;20243;-72
2021/11/26 01:58:28;;;;;;;2.67;1.53;;;;;;;1.62;64.02;99599.63;6146436;29;20189;-72
2021/11/26 02:01:33;;;;;;;5.67;1.40;;;;;;;1.76;63.15;99601.47;6144700;29;20271;-72
2021/11/26 02:04:37;;;;;;;4.90;1.60;;;;;;;1.75;63.47;99613.22;6146129;29;20247;-73
2021/11/26 02:07:42;;;;;;;1.77;1.53;;;;;;;1.64;63.33;99594.91;6146179;29;20216;-72
2021/11/26 02:10:47;;;;;;;2.27;1.27;;;;;;;1.63;63.88;99599.47;6144764;29;20254;-73
2021/11/26 02:13:52;;;;;;;2.00;1.40;;;;;;;1.77;64.25;99600.44;6143795;29;20379;-72
2021/11/26 02:16:56;;;;;;;1.57;1.47;;;;;;;1.69;64.49;99603.25;6145654;29;20192;-72
2021/11/26 02:20:13;;;;;;;3.70;1.30;;;;;;;1.80;63.43;99600.03;6145016;29;20252;-72
2021/11/26 02:23:18;;;;;;;4.57;1.50;;;;;;;1.75;63.85;99597.09;6143718;29;20390;-72
2021/11/26 02:26:22;;;;;;;1.50;1.50;;;;;;;1.65;63.90;99591.19;6145543;29;20295;-72
2021/11/26 02:29:26;;;;;;;2.47;1.47;;;;;;;1.64;64.18;99600.28;6145519;29;20192;-72
2021/11/26 02:32:30;;;;;;;1.60;1.50;;;;;;;1.33;64.81;99591.66;6144588;29;20239;-72
2021/11/26 02:35:36;;;;;;;3.57;1.30;;;;;;;1.18;65.21;99589.81;6144071;29;20519;-72
2021/11/26 02:38:41;;;;;;;1.43;1.30;;;;;;;1.17;65.38;99588.16;6145786;29;20254;-72
2021/11/26 02:41:45;;;;;;;3.40;1.40;;;;;;;1.15;65.21;99590.19;6145683;29;20231;-73
2021/11/26 02:44:49;;;;;;;1.60;1.50;;;;;;;1.30;64.92;99592.03;6145490;29;20193;-72
2021/11/26 02:47:55;;;;;;;1.40;1.30;;;;;;;1.25;64.89;99590.75;6144942;29;20191;-72
2021/11/26 02:51:01;;;;;;;1.27;1.27;;;;;;;1.36;64.87;99602.03;6144741;29;20252;-72
2021/11/26 02:54:05;;;;;;;3.30;1.43;;;;;;;1.23;64.37;99591.94;6144721;29;20226;-72
2021/11/26 02:57:10;;;;;;;5.30;1.63;;;;;;;1.15;65.08;99595.56;6144231;29;20189;-73
2021/11/26 03:00:19;;;;;;;2.30;1.30;;;;;;;1.20;65.24;99598.53;6143203;29;20219;-72
2021/11/26 03:03:24;;;;;;;2.40;1.40;;;;;;;1.09;65.21;99601.69;6143118;29;20213;-73
2021/11/26 03:06:29;;;;;;;2.63;1.50;;;;;;;1.04;65.50;99605.94;6143388;29;20519;-74
2021/11/26 03:09:34;;;;;;;1.60;1.30;;;;;;;1.19;64.78;99609.44;6144145;29;20192;-71
2021/11/26 03:12:39;;;;;;;4.03;1.43;;;;;;;1.26;64.66;99613.88;6143786;29;20261;-72
2021/11/26 03:15:44;;;;;;;1.67;1.20;;;;;;;1.23;65.00;99616.94;6142592;29;20582;-72
2021/11/26 03:18:49;;;;;;;4.33;1.40;;;;;;;1.06;64.93;99607.41;6143527;29;20189;-72
2021/11/26 03:21:54;;;;;;;1.53;1.43;;;;;;;1.02;64.98;99621.41;6143715;29;20221;-72
2021/11/26 03:24:59;;;;;;;2.20;1.40;;;;;;;1.05;64.87;99624.53;6143474;29;20195;-72
2021/11/26 03:28:05;;;;;;;1.40;1.30;;;;;;;1.13;64.98;99624.44;6143744;29;20192;-72
2021/11/26 03:31:09;;;;;;;1.40;1.40;;;;;;;1.03;65.30;99623.91;6142439;29;20191;-72
2021/11/26 03:34:14;;;;;;;2.33;1.37;;;;;;;1.11;65.17;99621.13;6142173;29;20382;-72
2021/11/26 03:37:19;;;;;;;1.30;1.20;;;;;;;1.08;64.97;99626.84;6143166;29;20198;-72
2021/11/26 03:40:25;;;;;;;4.07;1.43;;;;;;;1.09;65.00;99623.16;6143240;29;20193;-72
2021/11/26 03:43:30;;;;;;;1.40;1.27;;;;;;;1.08;64.79;99626.03;6142808;29;20195;-72
2021/11/26 03:46:34;;;;;;;1.30;1.20;;;;;;;1.16;65.12;99628.63;6143164;29;20244;-72
2021/11/26 03:49:38;;;;;;;2.57;1.37;;;;;;;1.23;64.63;99625.00;6142823;29;20286;-72
2021/11/26 03:52:44;;;;;;;1.50;1.40;;;;;;;1.27;64.58;99629.00;6143123;29;20191;-72
2021/11/26 03:55:49;;;;;;;2.00;1.13;;;;;;;1.06;65.14;99623.53;6142641;29;20216;-75
2021/11/26 03:58:53;;;;;;;1.40;1.40;;;;;;;1.16;65.78;99624.09;6142522;29;20238;-72
2021/11/26 04:01:57;;;;;;;3.00;1.50;;;;;;;1.29;64.82;99628.78;6142491;29;20257;-72
2021/11/26 04:05:02;;;;;;;1.20;1.20;;;;;;;1.27;65.11;99623.63;6142000;29;20635;-72
2021/11/26 04:08:08;;;;;;;2.77;1.33;;;;;;;1.20;64.64;99625.41;6142300;29;20199;-72
2021/11/26 04:11:13;;;;;;;1.70;1.30;;;;;;;1.30;64.23;99629.63;6141306;29;20446;-72
2021/11/26 04:14:17;;;;;;;1.40;1.30;;;;;;;1.02;65.18;99633.00;6142225;29;20259;-72
2021/11/26 04:17:22;;;;;;;3.57;1.33;;;;;;;1.02;65.29;99633.00;6141223;29;20381;-72
2021/11/26 04:20:26;;;;;;;1.50;1.40;;;;;;;1.12;64.99;99636.22;6141257;29;20532;-72
2021/11/26 04:23:32;;;;;;;1.70;1.60;;;;;;;0.90;65.11;99639.81;6141199;29;20191;-72
2021/11/26 04:26:37;;;;;;;2.57;1.37;;;;;;;0.75;65.17;99636.28;6141053;29;20219;-72
2021/11/26 04:29:42;;;;;;;1.27;1.27;;;;;;;0.75;65.10;99647.03;6142002;29;20199;-73
2021/11/26 04:32:47;;;;;;;1.50;1.40;;;;;;;0.45;65.56;99639.94;6141863;29;20222;-73
2021/11/26 04:35:51;;;;;;;1.30;1.30;;;;;;;0.45;65.78;99645.28;6142281;29;20219;-73
2021/11/26 04:38:57;;;;;;;1.20;1.20;;;;;;;0.58;65.54;99640.16;6142207;29;20192;-73
2021/11/26 04:42:01;;;;;;;1.10;1.10;;;;;;;0.42;66.20;99634.91;6141950;29;20243;-73
2021/11/26 04:45:08;;;;;;;1.40;1.40;;;;;;;0.40;65.55;99635.13;6142272;29;20266;-73
2021/11/26 04:48:15;;;;;;;1.50;1.40;;;;;;;0.47;65.50;99644.09;6141870;29;20198;-72
2021/11/26 04:51:19;;;;;;;2.47;1.20;;;;;;;0.43;66.40;99636.59;6140690;29;20422;-73
2021/11/26 04:54:25;;;;;;;1.63;1.63;;;;;;;0.68;65.57;99646.09;6141530;29;20266;-73
2021/11/26 04:57:29;;;;;;;1.13;1.13;;;;;;;0.57;65.42;99643.84;6140728;29;20285;-73
2021/11/26 05:00:33;;;;;;;2.13;1.40;;;;;;;0.52;66.36;99641.72;6141876;29;20214;-73
2021/11/26 05:03:38;;;;;;;1.93;1.40;;;;;;;0.46;66.61;99639.75;6140872;29;20230;-73
2021/11/26 05:06:42;;;;;;;1.30;1.30;;;;;;;0.53;66.55;99650.59;6141652;29;20344;-76
2021/11/26 05:09:48;;;;;;;1.20;1.20;;;;;;;0.47;66.17;99640.56;6140517;29;20200;-73
2021/11/26 05:12:55;;;;;;;9.67;1.63;;;;;;;0.36;66.89;99651.75;6140929;29;20192;-73
2021/11/26 05:16:00;;;;;;;1.40;1.40;;;;;;;0.39;66.95;99648.69;6141327;29;20288;-73
2021/11/26 05:19:05;;;;;;;4.10;1.40;;;;;;;0.56;66.05;99647.56;6140708;29;20191;-73
2021/11/26 05:22:10;;;;;;;2.07;1.33;;;;;;;0.19;66.24;99650.19;6141383;29;20274;-73
2021/11/26 05:25:16;;;;;;;5.00;1.33;;;;;;;0.02;67.73;99649.50;6141580;29;20228;-72
2021/11/26 05:28:40;;;;;;;1.60;1.60;;;;;;;0.16;67.59;99647.88;6146358;29;20197;-73
2021/11/26 05:31:44;;;;;;;1.83;1.40;;;;;;;0.22;67.39;99639.13;6146319;29;20255;-72
2021/11/26 05:34:48;;;;;;;1.70;1.23;;;;;;;-0.03;68.59;99647.31;6145794;29;20261;-72
2021/11/26 05:37:52;;;;;;;4.90;1.27;;;;;;;-0.14;67.98;99637.03;6146071;29;20250;-76
2021/11/26 05:40:58;;;;;;;1.30;1.30;;;;;;;-0.06;68.73;99652.22;6146060;29;20199;-72
2021/11/26 05:44:02;;;;;;;1.30;1.30;;;;;;;-0.23;68.98;99651.47;6145831;29;20213;-73
2021/11/26 05:47:07;;;;;;;6.27;1.80;;;;;;;-0.07;68.64;99656.75;6145590;29;20195;-73
2021/11/26 05:50:15;;;;;;;1.40;1.40;;;;;;;0.00;68.17;99657.72;6144628;29;20481;-73
2021/11/26 05:53:20;;;;;;;1.30;1.30;;;;;;;0.00;68.64;99662.25;6144925;29;20198;-73
2021/11/26 05:56:26;;;;;;;1.10;1.10;;;;;;;-0.19;69.15;99658.19;6145302;29;20220;-73
2021/11/26 05:59:30;;;;;;;2.33;1.20;;;;;;;-0.08;68.91;99659.63;6145625;29;20190;-73
2021/11/26 06:02:34;;;;;;;1.70;1.30;;;;;;;-0.06;69.17;99663.81;6144877;29;20191;-73
2021/11/26 06:05:39;;;;;;;2.87;1.40;;;;;;;-0.11;69.31;99666.19;6144015;29;20627;-73
2021/11/26 06:08:43;;;;;;;4.80;1.43;;;;;;;-0.02;69.60;99667.78;6145304;29;20252;-73
2021/11/26 06:11:49;;;;;;;1.50;1.40;;;;;;;-0.13;70.00;99673.53;6144020;29;20217;-73
2021/11/26 06:14:55;;;;;;;3.57;1.50;;;;;;;-0.19;69.96;99676.94;6144887;29;20234;-73
2021/11/26 06:17:59;;;;;;;1.57;1.53;;;;;;;-0.13;70.32;99684.25;6144769;29;20290;-73
2021/11/26 06:21:03;;;;;;;5.60;1.53;;;;;;;-0.22;70.73;99690.69;6144225;29;20190;-73
2021/11/26 06:24:09;;;;;;;1.40;1.40;;;;;;;0.08;70.05;99701.59;6144713;29;20191;-73
2021/11/26 06:27:15;;;;;;;1.50;1.47;;;;;;;0.21;69.10;99702.66;6143614;29;20497;-73
2021/11/26 06:30:22;;;;;;;1.67;1.57;;;;;;;0.12;69.18;99713.63;6144024;29;20189;-73
2021/11/26 06:33:26;;;;;;;1.40;1.40;;;;;;;0.20;69.36;99716.25;6144675;29;20191;-73
2021/11/26 06:36:31;;;;;;;3.10;1.27;;;;;;;0.22;68.99;99720.44;6144322;29;20298;-73
2021/11/26 06:39:35;;;;;;;1.30;1.30;;;;;;;0.19;69.30;99715.41;6142538;29;20485;-73
2021/11/26 06:42:42;;;;;;;1.57;1.47;;;;;;;0.33;68.91;99716.50;6144171;29;20190;-73
2021/11/26 06:45:46;;;;;;;2.73;1.37;;;;;;;0.20;69.12;99711.72;6143200;29;20380;-73
2021/11/26 06:48:50;;;;;;;5.13;2.20;;;;;;;0.22;69.34;99719.59;6144178;29;20265;-73
2021/11/26 06:51:54;;;;;;;1.63;1.60;;;;;;;0.13;69.21;99731.41;6144017;29;20191;-72
2021/11/26 06:55:00;;;;;;;1.67;1.57;;;;;;;0.04;69.64;99730.59;6143014;29;20265;-73
2021/11/26 06:58:06;;;;;;;1.40;1.40;;;;;;;0.12;69.79;99729.72;6143027;29;20285;-73
2021/11/26 07:01:12;;;;;;;1.53;1.53;;;;;;;0.36;68.81;99737.63;6143774;29;20191;-73
2021/11/26 07:04:17;;;;;;;1.90;1.40;;;;;;;0.09;68.98;99746.16;6143942;29;20245;-73
2021/11/26 07:07:21;;;;;;;1.30;1.30;;;;;;;0.13;68.75;99742.94;6142547;29;20537;-73
2021/11/26 07:10:25;;;;;;;1.87;1.20;;;;;;;0.14;68.98;99759.88;6143407;29;20210;-73
2021/11/26 07:13:31;;;;;;;2.60;1.37;;;;;;;0.20;69.26;99753.81;6143591;29;20191;-73
2021/11/26 07:16:35;;;;;;;1.53;1.43;;;;;;;0.38;68.86;99765.09;6142199;29;20214;-73
2021/11/26 07:19:40;;;;;;;4.83;1.33;;;;;;;0.45;68.60;99766.03;6142869;29;20195;-73
2021/11/26 07:22:44;;;;;;;3.40;1.63;;;;;;;0.34;69.32;99771.81;6142209;29;20477;-73
2021/11/26 07:25:48;;;;;;;4.57;1.30;;;;;;;0.25;68.73;99778.25;6143244;29;20261;-73
2021/11/26 07:28:54;;;;;;;3.20;1.40;;;;;;;0.13;68.89;99798.44;6143117;29;20200;-73
2021/11/26 07:31:58;;;;;;;4.57;1.90;;;;;;;0.26;68.75;99796.00;6142514;29;20253;-73
2021/11/26 07:35:02;;;;;;;3.30;1.30;;;;;;;0.22;68.99;99800.91;6142772;29;20191;-73
2021/11/26 07:38:08;;;;;;;1.20;1.20;;;;;;;0.34;68.03;99794.13;6142819;29;20340;-72
2021/11/26 07:41:13;;;;;;;4.03;1.70;;;;;;;0.30;68.15;99797.34;6142864;29;20270;-73
2021/11/26 07:44:19;;;;;;;1.60;1.60;;;;;;;0.28;69.02;99799.38;6142398;29;20210;-72
2021/11/26 07:47:23;;;;;;;1.73;1.63;;;;;;;0.22;68.86;99800.06;6141777;29;20270;-73
2021/11/26 07:50:28;;;;;;;2.83;1.30;;;;;;;0.46;68.02;99802.63;6142655;29;20246;-73
2021/11/26 07:53:32;;;;;;;1.57;1.47;;;;;;;0.11;68.75;99813.84;6142103;29;20215;-72
2021/11/26 07:56:37;;;;;;;1.53;1.43;;;;;;;0.06;69.21;99821.59;6141421;29;20438;-72
2021/11/26 07:59:43;;;;;;;2.10;1.30;;;;;;;0.20;68.98;99818.19;6141632;29;20259;-73
2021/11/26 08:02:47;;;;;;;6.70;1.50;;;;;;;0.06;69.20;99826.94;6142484;29;20215;-73
2021/11/26 08:05:52;;;;;;;2.53;1.47;;;;;;;-0.06;70.14;99829.19;6142040;29;20299;-73
2021/11/26 08:08:56;;;;;;;2.00;1.60;;;;;;;0.13;69.36;99828.75;6142014;29;20230;-73
2021/11/26 08:12:01;;;;;;;1.50;1.40;;;;;;;0.18;69.04;99836.31;6141024;29;20542;-73
2021/11/26 08:15:09;;;;;;;1.33;1.33;;;;;;;0.36;68.42;99835.00;6141046;29;20482;-73
2021/11/26 08:18:19;;;;;;;6.43;1.80;;;;;;;0.21;68.30;99841.28;6140964;29;20431;-73
2021/11/26 08:21:23;;;;;;;1.50;1.50;;;;;;;0.16;69.08;99839.16;6142280;29;20195;-73
2021/11/26 08:24:27;;;;;;;2.00;1.83;;;;;;;0.24;69.27;99843.63;6142229;29;20189;-73
2021/11/26 08:27:31;;;;;;;11.97;1.87;;;;;;;0.32;69.22;99848.97;6140810;29;20194;-73
2021/11/26 08:30:37;;;;;;;1.77;1.70;;;;;;;0.51;68.74;99843.19;6141964;29;20211;-73
2021/11/26 08:33:41;;;;;;;2.00;1.57;;;;;;;0.26;69.24;99845.13;6140941;29;20410;-73
2021/11/26 08:36:46;;;;;;;1.60;1.50;;;;;;;0.38;69.06;99843.75;6141042;29;20193;-73
2021/11/26 08:39:50;;;;;;;6.20;1.57;;;;;;;0.39;69.29;99852.59;6141757;29;20222;-73
2021/11/26 08:42:54;;;;;;;2.20;2.03;;;;;;;0.26;69.76;99852.34;6140588;29;20364;-73
2021/11/26 08:46:04;;;;;;;3.07;1.97;;;;;;;0.28;69.54;99863.75;6140619;29;20522;-73
2021/11/26 08:49:09;;;;;;;4.10;1.73;;;;;;;0.30;69.57;99842.94;6140470;29;20269;-73
2021/11/26 08:52:14;;;;;;;3.67;1.60;;;;;;;0.22;70.39;99861.75;6140436;29;20190;-73
2021/11/26 08:55:20;;;;;;;2.27;1.87;;;;;;;0.26;70.13;99846.97;6140436;29;20517;-73
2021/11/26 08:58:24;;;;;;;4.00;1.57;;;;;;;0.41;69.96;99854.09;6140291;29;20436;-73
2021/11/26 09:01:32;;;;;;;3.50;1.90;;;;;;;0.35;70.12;99864.72;6140871;29;20199;-74
2021/11/26 09:04:36;;;;;;;2.90;1.80;;;;;;;0.73;69.13;99860.31;6140442;29;20205;-73
2021/11/26 09:07:41;;;;;;;2.67;1.70;;;;;;;0.69;68.67;99851.78;6141828;29;20195;-73
2021/11/26 09:10:47;;;;;;;5.80;2.07;;;;;;;0.59;69.30;99867.28;6141296;29;20190;-73
2021/11/26 09:13:52;;;;;;;1.73;1.60;;;;;;;0.57;68.55;99853.19;6140394;29;20194;-74
2021/11/26 09:16:57;;;;;;;3.17;1.67;;;;;;;0.62;68.77;99840.06;6140286;29;20555;-73
2021/11/26 09:20:03;;;;;;;2.33;2.00;;;;;;;0.51;69.10;99837.81;6140190;29;20411;-73
2021/11/26 09:23:10;;;;;;;1.60;1.60;;;;;;;0.41;69.44;99831.81;6141561;29;20230;-73
2021/11/26 09:26:14;;;;;;;1.70;1.67;;;;;;;0.29;69.82;99828.69;6141481;29;20208;-73
2021/11/26 09:29:19;;;;;;;1.87;1.77;;;;;;;0.21;70.25;99825.19;6141127;29;20258;-73
2021/11/26 09:32:25;;;;;;;3.33;1.80;;;;;;;0.00;71.20;99823.97;6140130;29;20381;-73
2021/11/26 09:35:31;;;;;;;3.10;1.70;;;;;;;0.06;71.43;99835.00;6139972;29;20191;-72
2021/11/26 09:38:37;;;;;;;2.50;1.60;;;;;;;0.22;71.70;99833.09;6140721;29;20226;-73
2021/11/26 09:41:42;;;;;;;4.40;1.43;;;;;;;0.29;70.62;99833.22;6140841;29;20198;-73
2021/11/26 09:44:46;;;;;;;1.30;1.30;;;;;;;0.41;69.92;99832.63;6139880;29;20501;-73
2021/11/26 09:47:53;;;;;;;1.27;1.27;;;;;;;0.55;69.37;99841.78;6140848;29;20214;-73
2021/11/26 09:50:57;;;;;;;1.30;1.30;;;;;;;0.56;69.12;99844.31;6139694;29;20191;-73
2021/11/26 09:54:02;;;;;;;1.27;1.27;;;;;;;0.61;69.06;99844.63;6139858;29;20438;-73
2021/11/26 09:57:07;;;;;;;1.50;1.50;;;;;;;0.52;69.67;99855.56;6139809;29;20479;-73
2021/11/26 10:00:15;;;;;;;1.63;1.53;;;;;;;0.64;69.64;99848.81;6140837;29;20224;-74
2021/11/26 10:03:23;;;;;;;1.40;1.40;;;;;;;0.50;68.70;99855.75;6138737;29;20206;-73
2021/11/26 10:06:34;;;;;;;1.40;1.40;;;;;;;0.83;68.64;99853.69;6140350;29;20266;-72
2021/11/26 10:09:40;;;;;;;2.00;1.30;;;;;;;0.85;68.06;99840.91;6141019;29;20196;-74
2021/11/26 10:12:45;;;;;;;1.97;1.27;;;;;;;0.68;68.48;99842.06;6140967;29;20231;-72
2021/11/26 10:15:52;;;;;;;1.27;1.27;;;;;;;0.55;68.90;99844.47;6144993;29;20215;-72
2021/11/26 10:18:57;;;;;;;1.53;1.43;;;;;;;0.47;68.37;99847.19;6144691;29;20224;-72
2021/11/26 10:22:13;;;;;;;2.17;1.40;;;;;;;0.72;68.48;99837.97;6143642;29;20374;-73
2021/11/26 10:25:20;;;;;;;6.20;1.50;;;;;;;0.73;68.29;99842.34;6144941;29;20207;-73
2021/11/26 10:28:24;;;;;;;1.10;1.10;;;;;;;0.69;68.44;99840.22;6143500;29;20509;-73
2021/11/26 10:31:31;;;;;;;1.23;1.23;;;;;;;0.75;68.43;99840.31;6143418;29;20185;-72
2021/11/26 10:34:51;;;;;;;3.20;1.20;;;;;;;0.66;68.55;99846.78;6144809;29;20258;-73
2021/11/26 10:37:58;;;;;;;3.83;1.17;;;;;;;0.84;68.18;99844.63;6144624;29;20199;-73
2021/11/26 10:41:05;;;;;;;2.07;1.30;;;;;;;0.67;68.64;99853.78;6144241;29;20214;-73
2021/11/26 10:44:13;;;;;;;1.40;1.40;;;;;;;0.63;68.09;99852.50;6143133;29;20197;-73
2021/11/26 10:47:21;;;;;;;1.30;1.20;;;;;;;0.91;67.93;99853.63;6144357;29;20254;-72
2021/11/26 10:50:44;;;;;;;1.37;1.30;;;;;;;0.66;68.49;99868.25;6144103;29;20196;-73
2021/11/26 11:00:38;;;;;;;1.60;1.60;;;;;;;0.52;69.23;99867.13;6143267;29;20215;-73
2021/11/26 11:03:43;;;;;;;2.13;1.40;;;;;;;0.77;69.18;99872.38;6142646;29;20422;-72
2021/11/26 11:06:58;;;;;;;2.23;1.70;;;;;;;0.71;68.74;99871.22;6143860;29;20239;-72
2021/11/26 11:10:02;;;;;;;1.50;1.40;;;;;;;0.84;68.56;99882.22;6143781;29;20269;-72
2021/11/26 11:13:09;;;;;;;5.10;1.80;;;;;;;0.60;68.77;99879.69;6143493;29;20191;-72
2021/11/26 11:16:14;;;;;;;1.43;1.43;;;;;;;0.78;68.29;99880.25;6143266;29;20254;-73
2021/11/26 11:19:19;;;;;;;3.80;1.37;;;;;;;0.75;68.69;99877.06;6142178;29;20432;-73
2021/11/26 11:22:25;;;;;;;3.80;1.50;;;;;;;0.76;69.19;99873.38;6142247;29;20485;-73
2021/11/26 11:25:29;;;;;;;3.80;1.40;;;;;;;0.65;68.60;99874.63;6142267;29;20297;-74
2021/11/26 11:28:34;;;;;;;1.50;1.50;;;;;;;0.76;69.33;99874.22;6143574;29;20256;-73
2021/11/26 11:31:41;;;;;;;2.43;1.90;;;;;;;1.01;68.63;99878.41;6143397;29;20188;-73
2021/11/26 11:34:47;;;;;;;1.77;1.67;;;;;;;1.01;68.91;99873.03;6143047;29;20192;-73
2021/11/26 11:37:55;;;;;;;6.77;1.47;;;;;;;0.88;68.87;99856.69;6142885;29;20348;-73
2021/11/26 11:41:01;;;;;;;1.50;1.40;;;;;;;0.88;69.00;99867.41;6143027;29;20223;-73
2021/11/26 11:44:08;;;;;;;7.10;1.83;;;;;;;0.97;69.60;99870.88;6142679;29;20222;-73
2021/11/26 11:47:18;;;;;;;1.50;1.40;;;;;;;1.03;69.11;99870.16;6142797;29;20192;-73
2021/11/26 11:50:24;;;;;;;1.17;1.17;;;;;;;0.88;69.32;99874.63;6142362;29;20426;-74
2021/11/26 11:53:33;;;;;;;1.87;1.70;;;;;;;1.05;68.89;99855.53;6141959;29;20479;-73
2021/11/26 11:56:40;;;;;;;3.40;1.40;;;;;;;1.00;69.54;99860.59;6141406;29;20380;-72
2021/11/26 11:59:44;;;;;;;1.70;1.60;;;;;;;1.23;68.77;99856.06;6142215;29;20219;-73
2021/11/26 12:02:51;;;;;;;2.37;1.40;;;;;;;0.98;69.17;99862.63;6141535;29;20364;-72
2021/11/26 12:05:57;;;;;;;2.00;1.30;;;;;;;0.91;69.70;99859.00;6142247;29;20246;-72
2021/11/26 12:09:04;;;;;;;6.43;1.30;;;;;;;0.96;69.58;99867.38;6141185;29;20223;-72
2021/11/26 12:12:13;;;;;;;2.63;1.30;;;;;;;0.91;69.31;99867.06;6142522;29;20191;-72
2021/11/26 12:15:28;;;;;;;3.17;1.47;;;;;;;1.01;69.22;99862.28;6141044;29;20258;-72
2021/11/26 12:18:44;;;;;;;2.57;1.20;;;;;;;1.10;69.09;99877.34;6141716;29;20198;-72
2021/11/26 12:21:51;;;;;;;1.50;1.50;;;;;;;1.32;68.49;99878.31;6141974;29;20246;-73
2021/11/26 12:24:58;;;;;;;2.43;1.37;;;;;;;1.35;68.40;99880.66;6141162;29;20206;-72
2021/11/26 12:28:07;;;;;;;1.97;1.20;;;;;;;1.36;67.86;99876.13;6141719;29;20191;-72
2021/11/26 12:31:13;;;;;;;2.03;1.40;;;;;;;1.09;68.74;99878.34;6141848;29;20202;-72
2021/11/26 12:34:20;;;;;;;1.77;1.30;;;;;;;1.18;67.78;99888.00;6140887;29;20198;-72
2021/11/26 12:37:26;;;;;;;1.20;1.20;;;;;;;1.22;67.92;99881.28;6140854;29;20219;-72
2021/11/26 12:40:32;;;;;;;1.03;1.03;;;;;;;1.08;67.89;99883.88;6141687;29;20277;-72
2021/11/26 12:43:44;;;;;;;1.70;1.60;;;;;;;1.11;67.54;99884.38;6140513;29;20481;-72
2021/11/26 12:46:55;;;;;;;1.47;1.40;;;;;;;1.19;67.23;99891.53;6140945;29;20274;-73
2021/11/26 12:53:26;;;;;;;2.07;1.27;;;;;;;1.30;67.66;99888.44;6140431;29;20191;-73
2021/11/26 12:56:31;;;;;;;1.30;1.30;;;;;;;1.42;67.34;99896.88;6141420;29;20194;-72
2021/11/26 12:59:40;;;;;;;1.50;1.40;;;;;;;1.16;67.47;99887.34;6141667;29;20191;-73
2021/11/26 13:02:44;;;;;;;2.30;1.30;;;;;;;1.23;67.60;99890.97;6141345;29;20195;-75
2021/11/26 13:05:53;;;;;;;1.40;1.40;;;;;;;1.27;67.12;99886.94;6141111;29;20240;-73
2021/11/26 13:09:00;;;;;;;2.23;1.50;;;;;;;1.18;67.58;99898.75;6140134;29;20527;-73
2021/11/26 13:12:29;;;;;;;1.37;1.27;;;;;;;1.35;67.49;99893.25;6141256;29;20197;-72
2021/11/26 13:15:35;;;;;;;1.50;1.40;;;;;;;1.36;67.20;99900.31;6140576;29;20295;-73
2021/11/26 13:18:40;;;;;;;1.30;1.30;;;;;;;1.30;67.64;99898.34;6140259;29;20374;-73
2021/11/26 13:21:44;;;;;;;2.17;1.33;;;;;;;1.25;67.25;99907.78;6141346;29;20226;-72
2021/11/26 13:24:50;;;;;;;1.53;1.37;;;;;;;1.24;67.35;99911.47;6140271;29;20498;-73
2021/11/26 13:28:00;;;;;;;1.40;1.30;;;;;;;1.49;67.25;99908.59;6141138;29;20188;-73
2021/11/26 13:31:08;;;;;;;4.63;1.40;;;;;;;1.18;67.46;99906.81;6140694;29;20194;-73
2021/11/26 13:34:14;;;;;;;1.50;1.40;;;;;;;0.99;68.03;99915.34;6141227;29;20191;-73
2021/11/26 13:37:18;;;;;;;1.53;1.47;;;;;;;0.72;69.04;99915.84;6140551;29;20198;-73
2021/11/26 13:40:22;;;;;;;1.43;1.30;;;;;;;0.79;68.79;99921.34;6140006;29;20541;-73
2021/11/26 13:43:32;;;;;;;1.30;1.30;;;;;;;0.91;68.71;99931.50;6141068;29;20191;-72
2021/11/26 13:46:38;;;;;;;1.50;1.40;;;;;;;0.90;68.50;99929.84;6141395;29;20194;-72
2021/11/26 13:49:43;;;;;;;1.50;1.47;;;;;;;1.02;68.50;99932.97;6145720;29;20196;-72
2021/11/26 13:52:47;;;;;;;4.83;1.30;;;;;;;1.07;67.83;99939.47;6145602;29;20262;-72
2021/11/26 13:56:12;;;;;;;1.30;1.30;;;;;;;1.03;67.43;99938.16;6144149;29;20432;-72
2021/11/26 13:59:23;;;;;;;1.37;1.37;;;;;;;0.97;67.23;99946.94;6145219;29;20190;-72
2021/11/26 14:02:27;;;;;;;1.20;1.20;;;;;;;0.82;67.48;99942.50;6145155;29;20226;-72
2021/11/26 14:05:35;;;;;;;1.17;1.17;;;;;;;0.89;67.65;99944.28;6144445;29;20230;-72
2021/11/26 14:08:47;;;;;;;1.20;1.20;;;;;;;0.97;67.41;99946.94;6144915;29;20265;-72
2021/11/26 14:11:59;;;;;;;1.40;1.40;;;;;;;0.87;67.36;99945.47;6145313;29;20195;-72
2021/11/26 14:15:06;;;;;;;2.00;1.40;;;;;;;0.88;67.71;99947.97;6145202;29;20191;-72
2021/11/26 14:18:17;;;;;;;1.23;1.23;;;;;;;0.89;67.32;99955.03;6143775;29;20192;-72
2021/11/26 14:21:23;;;;;;;1.43;1.40;;;;;;;0.86;67.14;99955.38;6143548;29;20402;-72
2021/11/26 14:24:35;;;;;;;1.57;1.50;;;;;;;0.69;67.90;99959.16;6144990;29;20198;-72
2021/11/26 14:27:42;;;;;;;3.00;1.10;;;;;;;0.76;67.88;99954.75;6143515;29;20267;-72
2021/11/26 14:30:48;;;;;;;1.50;1.40;;;;;;;0.94;67.56;99963.41;6144386;29;20470;-72
2021/11/26 14:34:00;;;;;;;2.40;1.30;;;;;;;0.88;67.76;99958.72;6144602;29;20196;-72
2021/11/26 14:37:05;;;;;;;1.70;1.40;;;;;;;0.87;68.00;99962.44;6144069;29;20198;-72
2021/11/26 14:40:22;;;;;;;1.20;1.20;;;;;;;0.92;67.96;99970.78;6144436;29;20219;-72
2021/11/26 14:43:26;;;;;;;3.03;1.50;;;;;;;1.06;67.21;99967.34;6144359;29;20215;-72
2021/11/26 14:46:32;;;;;;;2.60;1.90;;;;;;;0.81;68.31;99971.19;6144400;29;20262;-73
2021/11/26 14:49:45;;;;;;;4.27;2.00;;;;;;;0.75;69.01;99973.72;6143982;29;20219;-73
2021/11/26 14:52:50;;;;;;;1.90;1.80;;;;;;;0.60;68.54;99981.66;6143844;29;20196;-73
2021/11/26 14:55:54;;;;;;;1.30;1.30;;;;;;;0.70;68.82;99981.47;6143906;29;20193;-72